Time;durP1;ratioP1;P1;durP2;ratioP2;P2;SDS_P1;SDS_P2;PMS_P1;PMS_P2;Temp;Humidity;BMP_temperature;BMP_pressure;BME280_temperature;BME280_humidity;BME280_pressure;Samples;Min_cycle;Max_cycle;Signal;HPM_P1;HPM_P2
2023/04/14 00:01:25;;;;;;;5.60;1.40;;;;;;;;;;5102581;28;20499;-70
2023/04/14 00:03:51;;;;;;;4.03;1.33;;;;;;;;;;5064105;28;20387;-70
2023/04/14 00:06:17;;;;;;;;;;;;;;;;;;5093930;28;20066;-70
2023/04/14 00:08:43;;;;;;;3.70;1.42;;;;;;;;;;5060675;28;20344;-70
2023/04/14 00:11:09;;;;;;;5.13;1.75;;;;;;;;;;5102931;28;20076;-69
2023/04/14 00:13:35;;;;;;;6.22;1.60;;;;;;;;;;5102618;28;20040;-69
2023/04/14 00:16:01;;;;;;;3.65;1.60;;;;;;;;;;5052647;28;20114;-68
2023/04/14 00:18:28;;;;;;;4.15;1.55;;;;;;;;;;5068934;28;20045;-68
2023/04/14 00:20:54;;;;;;;3.70;1.30;;;;;;;;;;5102518;28;20041;-69
2023/04/14 00:23:20;;;;;;;4.20;1.25;;;;;;;;;;5068833;28;20040;-69
2023/04/14 00:25:47;;;;;;;2.38;1.00;;;;;;;;;;5070154;28;20438;-69
2023/04/14 00:28:12;;;;;;;;;;;;;;;;;;5069036;28;20063;-69
2023/04/14 00:30:39;;;;;;;4.05;1.30;;;;;;;;;;5069051;28;20305;-69
2023/04/14 00:33:05;;;;;;;2.03;1.02;;;;;;;;;;5102278;28;20036;-69
2023/04/14 00:35:31;;;;;;;1.52;0.80;;;;;;;;;;5103757;28;20510;-69
2023/04/14 00:37:57;;;;;;;2.08;0.90;;;;;;;;;;5089685;28;20051;-69
2023/04/14 00:40:23;;;;;;;3.50;1.52;;;;;;;;;;5072876;28;20133;-68
2023/04/14 00:42:50;;;;;;;2.83;1.00;;;;;;;;;;5055824;28;20051;-69
2023/04/14 00:45:16;;;;;;;3.25;1.05;;;;;;;;;;5073081;28;20052;-69
2023/04/14 00:47:49;;;;;;;2.50;1.00;;;;;;;;;;5071530;28;20181;-70
2023/04/14 00:50:19;;;;;;;1.20;0.80;;;;;;;;;;5082158;28;20487;-69
2023/04/14 00:52:47;;;;;;;2.53;1.15;;;;;;;;;;5071242;28;20085;-69
2023/04/14 00:55:14;;;;;;;1.33;0.90;;;;;;;;;;5070753;28;20055;-69
2023/04/14 00:57:40;;;;;;;3.28;1.33;;;;;;;;;;5070891;28;20040;-69
2023/04/14 01:00:10;;;;;;;3.47;1.30;;;;;;;;;;5055432;28;20080;-69
2023/04/14 01:02:36;;;;;;;4.35;1.42;;;;;;;;;;5070360;28;20059;-69
2023/04/14 01:05:02;;;;;;;3.20;1.52;;;;;;;;;;5055296;28;20051;-70
2023/04/14 01:07:28;;;;;;;3.80;2.03;;;;;;;;;;5046041;28;20036;-69
2023/04/14 01:09:56;;;;;;;3.15;1.77;;;;;;;;;;5069260;28;20055;-69
2023/04/14 01:12:39;;;;;;;3.95;1.58;;;;;;;;;;5070498;28;20139;-69
2023/04/14 01:15:08;;;;;;;2.90;1.48;;;;;;;;;;5067940;28;20048;-69
2023/04/14 01:17:38;;;;;;;2.90;1.27;;;;;;;;;;5070345;28;20044;-70
2023/04/14 01:20:10;;;;;;;2.03;1.08;;;;;;;;;;5071272;28;20045;-69
2023/04/14 01:22:47;;;;;;;3.30;0.95;;;;;;;;;;5070395;28;20036;-69
2023/04/14 01:25:16;;;;;;;1.50;0.90;;;;;;;;;;5103225;28;20044;-69
2023/04/14 01:27:45;;;;;;;1.20;0.70;;;;;;;;;;5070355;28;20049;-69
2023/04/14 01:30:30;;;;;;;2.10;0.82;;;;;;;;;;5071045;28;20048;-70
2023/04/14 01:32:58;;;;;;;2.03;0.85;;;;;;;;;;5068594;28;20127;-69
2023/04/14 01:35:36;;;;;;;1.60;0.90;;;;;;;;;;5070812;28;20662;-69
2023/04/14 01:38:10;;;;;;;2.55;0.90;;;;;;;;;;5062966;28;20052;-69
2023/04/14 01:40:37;;;;;;;3.20;1.00;;;;;;;;;;5068996;28;20044;-69
2023/04/14 01:43:05;;;;;;;3.42;1.20;;;;;;;;;;5087407;28;20047;-69
2023/04/14 01:45:47;;;;;;;1.55;0.93;;;;;;;;;;5100812;28;20049;-69
2023/04/14 01:48:14;;;;;;;1.90;0.98;;;;;;;;;;5086081;28;20095;-69
2023/04/14 01:50:41;;;;;;;1.85;0.93;;;;;;;;;;5070769;28;20522;-69
2023/04/14 01:53:10;;;;;;;3.28;1.00;;;;;;;;;;5069336;28;20052;-68
2023/04/14 01:55:37;;;;;;;2.17;0.82;;;;;;;;;;5069706;28;20097;-68
2023/04/14 01:58:04;;;;;;;2.30;0.90;;;;;;;;;;5070231;28;20109;-69
2023/04/14 02:00:31;;;;;;;1.52;0.80;;;;;;;;;;5103538;28;20400;-68
2023/04/14 02:02:58;;;;;;;3.00;0.80;;;;;;;;;;5103393;28;20182;-68
2023/04/14 02:05:25;;;;;;;1.50;0.80;;;;;;;;;;5068708;28;20551;-69
2023/04/14 02:07:52;;;;;;;1.52;0.80;;;;;;;;;;5070496;28;20028;-68
2023/04/14 02:10:19;;;;;;;1.40;0.85;;;;;;;;;;5068405;28;20043;-69
2023/04/14 02:12:47;;;;;;;1.25;0.80;;;;;;;;;;5070048;28;20120;-70
2023/04/14 02:15:16;;;;;;;1.80;0.88;;;;;;;;;;5070218;28;20052;-70
2023/04/14 02:17:47;;;;;;;3.75;0.90;;;;;;;;;;5070889;28;20037;-69
2023/04/14 02:20:14;;;;;;;1.27;0.70;;;;;;;;;;5066574;28;20048;-69
2023/04/14 02:22:40;;;;;;;;;;;;;;;;;;5071092;28;20047;-69
2023/04/14 02:25:06;;;;;;;1.27;0.65;;;;;;;;;;5070632;28;20334;-69
2023/04/14 02:27:32;;;;;;;;;;;;;;;;;;5070811;28;20052;-69
2023/04/14 02:29:59;;;;;;;1.38;0.70;;;;;;;;;;5070837;28;19916;-69
2023/04/14 02:32:28;;;;;;;1.55;0.60;;;;;;;;;;5054059;28;20062;-70
2023/04/14 02:35:10;;;;;;;1.58;0.70;;;;;;;;;;5053091;28;20435;-69
2023/04/14 02:37:38;;;;;;;1.70;0.90;;;;;;;;;;5057701;28;20063;-69
2023/04/14 02:40:09;;;;;;;2.10;0.90;;;;;;;;;;5103951;28;20460;-69
2023/04/14 02:42:36;;;;;;;2.03;0.80;;;;;;;;;;5070154;28;20071;-69
2023/04/14 02:45:04;;;;;;;2.83;1.02;;;;;;;;;;5104297;28;20426;-69
2023/04/14 02:47:36;;;;;;;3.20;1.17;;;;;;;;;;5053339;28;20040;-69
2023/04/14 02:50:03;;;;;;;2.97;1.20;;;;;;;;;;5069943;28;20056;-69
2023/04/14 02:52:31;;;;;;;1.88;1.00;;;;;;;;;;5104023;28;20101;-69
2023/04/14 02:54:58;;;;;;;3.60;0.95;;;;;;;;;;5103970;28;20044;-69
2023/04/14 02:57:25;;;;;;;2.28;1.00;;;;;;;;;;5053056;28;20044;-69
2023/04/14 02:59:51;;;;;;;2.03;1.00;;;;;;;;;;5069384;28;20037;-69
2023/04/14 03:02:18;;;;;;;1.48;0.60;;;;;;;;;;5104298;28;20044;-69
2023/04/14 03:04:44;;;;;;;1.00;0.70;;;;;;;;;;5103697;28;20459;-69
2023/04/14 03:07:12;;;;;;;0.98;0.70;;;;;;;;;;5070171;28;20463;-69
2023/04/14 03:09:39;;;;;;;1.13;0.70;;;;;;;;;;5051453;28;20063;-69
2023/04/14 03:12:06;;;;;;;2.40;0.73;;;;;;;;;;5069946;28;20048;-69
2023/04/14 03:14:34;;;;;;;1.45;0.82;;;;;;;;;;5069655;28;20463;-69
2023/04/14 03:17:00;;;;;;;2.65;0.90;;;;;;;;;;5101928;28;20043;-69
2023/04/14 03:19:28;;;;;;;1.40;0.73;;;;;;;;;;5069239;28;20045;-69
2023/04/14 03:21:54;;;;;;;1.27;0.80;;;;;;;;;;5068939;28;20080;-69
2023/04/14 03:24:23;;;;;;;;;;;;;;;;;;5103778;28;20560;-69
2023/04/14 03:26:51;;;;;;;0.90;0.60;;;;;;;;;;5069386;28;19939;-69
2023/04/14 03:29:19;;;;;;;1.58;0.80;;;;;;;;;;5069258;28;20082;-69
2023/04/14 03:31:46;;;;;;;1.25;0.70;;;;;;;;;;5086198;28;20040;-70
2023/04/14 03:34:14;;;;;;;2.17;0.70;;;;;;;;;;5053194;28;20044;-71
2023/04/14 03:36:42;;;;;;;1.58;0.65;;;;;;;;;;5052712;28;20036;-70
2023/04/14 03:39:13;;;;;;;2.50;0.95;;;;;;;;;;5071766;28;20048;-70
2023/04/14 03:41:41;;;;;;;2.05;0.88;;;;;;;;;;5067381;28;20037;-70
2023/04/14 03:44:14;;;;;;;2.45;1.00;;;;;;;;;;5069405;28;20052;-70
2023/04/14 03:46:40;;;;;;;1.50;0.80;;;;;;;;;;5068057;28;20112;-70
2023/04/14 03:49:09;;;;;;;2.92;1.20;;;;;;;;;;5067827;28;20110;-70
2023/04/14 03:51:37;;;;;;;2.35;1.05;;;;;;;;;;5068069;28;20044;-70
2023/04/14 03:54:05;;;;;;;4.10;1.52;;;;;;;;;;5049013;28;20084;-70
2023/04/14 03:56:36;;;;;;;3.15;1.33;;;;;;;;;;5060079;28;20040;-70
2023/04/14 03:59:04;;;;;;;2.65;0.98;;;;;;;;;;5067002;28;20048;-69
2023/04/14 04:01:30;;;;;;;1.33;0.75;;;;;;;;;;5066160;28;20506;-69
2023/04/14 04:03:59;;;;;;;3.78;1.30;;;;;;;;;;5067153;28;20407;-69
2023/04/14 04:06:26;;;;;;;2.20;0.93;;;;;;;;;;5051923;28;20135;-69
2023/04/14 04:08:53;;;;;;;2.78;0.93;;;;;;;;;;5068150;28;20052;-70
2023/04/14 04:11:19;;;;;;;4.03;1.20;;;;;;;;;;5065695;28;20474;-69
2023/04/14 04:13:47;;;;;;;2.75;0.98;;;;;;;;;;5069203;28;20052;-69
2023/04/14 04:16:13;;;;;;;1.05;0.60;;;;;;;;;;5067681;28;20048;-69
2023/04/14 04:18:45;;;;;;;1.38;0.90;;;;;;;;;;5066819;28;20094;-69
2023/04/14 04:21:11;;;;;;;4.07;1.40;;;;;;;;;;5066954;28;20048;-69
2023/04/14 04:23:39;;;;;;;2.33;0.90;;;;;;;;;;5067584;28;20046;-69
2023/04/14 04:26:06;;;;;;;2.45;0.90;;;;;;;;;;5066897;28;20033;-68
2023/04/14 04:28:32;;;;;;;3.17;0.82;;;;;;;;;;5067269;28;20044;-70
2023/04/14 04:30:59;;;;;;;3.28;0.80;;;;;;;;;;5066675;28;20429;-70
2023/04/14 04:33:27;;;;;;;3.20;1.17;;;;;;;;;;5061254;28;20435;-70
2023/04/14 04:35:55;;;;;;;2.45;1.13;;;;;;;;;;5047664;28;20087;-70
2023/04/14 04:38:21;;;;;;;3.75;0.90;;;;;;;;;;5066278;28;20826;-70
2023/04/14 04:40:47;;;;;;;2.45;1.05;;;;;;;;;;5069477;28;20246;-70
2023/04/14 04:43:13;;;;;;;3.38;0.80;;;;;;;;;;5056990;28;20047;-69
2023/04/14 04:46:01;;;;;;;1.92;0.77;;;;;;;;;;5050831;28;20024;-68
2023/04/14 04:48:27;;;;;;;1.60;0.57;;;;;;;;;;5067357;28;20484;-69
2023/04/14 04:50:53;;;;;;;1.15;0.70;;;;;;;;;;5063867;28;20052;-69
2023/04/14 04:53:19;;;;;;;1.77;0.50;;;;;;;;;;5063710;28;20048;-69
2023/04/14 04:55:45;;;;;;;1.15;0.50;;;;;;;;;;5050988;28;20072;-69
2023/04/14 04:58:12;;;;;;;2.05;0.70;;;;;;;;;;5101101;28;20075;-69
2023/04/14 05:00:38;;;;;;;1.73;0.65;;;;;;;;;;5066218;28;20494;-69
2023/04/14 05:03:04;;;;;;;1.02;0.60;;;;;;;;;;5079588;28;20045;-69
2023/04/14 05:05:30;;;;;;;0.90;0.50;;;;;;;;;;5066140;28;20079;-69
2023/04/14 05:07:56;;;;;;;1.05;0.60;;;;;;;;;;5050925;28;20148;-69
2023/04/14 05:10:22;;;;;;;0.55;0.40;;;;;;;;;;5084216;28;20055;-69
2023/04/14 05:12:48;;;;;;;0.80;0.50;;;;;;;;;;5066708;28;20396;-69
2023/04/14 05:15:14;;;;;;;0.88;0.60;;;;;;;;;;5069888;28;20506;-69
2023/04/14 05:17:42;;;;;;;1.10;0.70;;;;;;;;;;5050338;28;20045;-69
2023/04/14 05:20:08;;;;;;;0.40;0.40;;;;;;;;;;5065125;28;20128;-70
2023/04/14 05:22:34;;;;;;;1.20;0.60;;;;;;;;;;5050817;28;20044;-69
2023/04/14 05:25:00;;;;;;;3.92;1.13;;;;;;;;;;5072065;28;20062;-70
2023/04/14 05:27:26;;;;;;;1.92;0.98;;;;;;;;;;5070608;28;20055;-69
2023/04/14 05:29:53;;;;;;;2.97;1.60;;;;;;;;;;5053968;28;20036;-70
2023/04/14 05:32:20;;;;;;;3.33;2.20;;;;;;;;;;5071867;28;20033;-70
2023/04/14 05:34:46;;;;;;;6.57;3.70;;;;;;;;;;5070109;28;20126;-70
2023/04/14 05:37:12;;;;;;;4.03;3.50;;;;;;;;;;5070687;28;20411;-70
2023/04/14 05:39:38;;;;;;;3.92;2.63;;;;;;;;;;5104670;28;20045;-70
2023/04/14 05:42:04;;;;;;;3.05;1.80;;;;;;;;;;5074902;28;20075;-70
2023/04/14 05:44:31;;;;;;;3.33;2.00;;;;;;;;;;5053342;28;20040;-70
2023/04/14 05:46:57;;;;;;;3.40;1.50;;;;;;;;;;5054944;28;20129;-70
2023/04/14 05:49:23;;;;;;;3.13;1.23;;;;;;;;;;5070410;28;20059;-70
2023/04/14 05:51:49;;;;;;;3.20;1.23;;;;;;;;;;5071593;28;20153;-70
2023/04/14 05:54:15;;;;;;;1.40;0.90;;;;;;;;;;5061501;28;20045;-70
2023/04/14 05:56:41;;;;;;;2.10;0.90;;;;;;;;;;5061066;28;20090;-70
2023/04/14 05:59:07;;;;;;;1.90;0.90;;;;;;;;;;5070434;28;20048;-70
2023/04/14 06:01:33;;;;;;;2.92;1.13;;;;;;;;;;5071120;28;20104;-69
2023/04/14 06:04:01;;;;;;;3.03;1.10;;;;;;;;;;5070965;28;20395;-70
2023/04/14 06:06:27;;;;;;;2.60;1.27;;;;;;;;;;5071296;28;20164;-70
2023/04/14 06:08:53;;;;;;;6.15;1.30;;;;;;;;;;5071190;28;20123;-70
2023/04/14 06:11:19;;;;;;;4.78;1.50;;;;;;;;;;5103113;28;20472;-70
2023/04/14 06:13:45;;;;;;;2.60;1.15;;;;;;;;;;5070898;28;20468;-70
2023/04/14 06:16:11;;;;;;;4.85;1.20;;;;;;;;;;5069664;28;20497;-69
2023/04/14 06:18:37;;;;;;;4.20;1.05;;;;;;;;;;5069862;28;20055;-71
2023/04/14 06:21:03;;;;;;;2.80;1.17;;;;;;;;;;5069058;28;20381;-71
2023/04/14 06:23:30;;;;;;;2.53;0.90;;;;;;;;;;5103352;28;20071;-71
2023/04/14 06:25:57;;;;;;;2.38;0.93;;;;;;;;;;5070134;28;20124;-71
2023/04/14 06:28:24;;;;;;;2.58;0.98;;;;;;;;;;5070631;28;20048;-71
2023/04/14 06:30:50;;;;;;;3.50;1.10;;;;;;;;;;5053139;28;20040;-72
2023/04/14 06:33:16;;;;;;;4.10;1.52;;;;;;;;;;5068765;28;20048;-73
2023/04/14 06:35:43;;;;;;;2.45;1.00;;;;;;;;;;5069821;28;20396;-72
2023/04/14 06:38:09;;;;;;;2.67;1.00;;;;;;;;;;5050811;28;20051;-73
2023/04/14 06:40:35;;;;;;;2.75;1.00;;;;;;;;;;5053337;28;20044;-72
2023/04/14 06:43:02;;;;;;;2.90;1.10;;;;;;;;;;5052451;28;20044;-73
2023/04/14 06:45:28;;;;;;;3.33;1.00;;;;;;;;;;5069202;28;20098;-72
2023/04/14 06:47:54;;;;;;;1.25;0.90;;;;;;;;;;5067116;28;20057;-73
2023/04/14 06:50:21;;;;;;;2.25;0.88;;;;;;;;;;5068487;28;20567;-72
2023/04/14 06:52:47;;;;;;;2.17;0.80;;;;;;;;;;5069706;28;20490;-72
2023/04/14 06:55:13;;;;;;;2.40;0.90;;;;;;;;;;5069626;28;20051;-72
2023/04/14 06:57:39;;;;;;;4.00;1.00;;;;;;;;;;5068918;28;20050;-73
2023/04/14 07:00:06;;;;;;;2.05;0.80;;;;;;;;;;5068147;28;20052;-73
2023/04/14 07:02:32;;;;;;;2.70;1.00;;;;;;;;;;5067536;28;20084;-72
2023/04/14 07:04:58;;;;;;;2.50;0.95;;;;;;;;;;5068093;28;20058;-72
2023/04/14 07:07:24;;;;;;;3.20;0.95;;;;;;;;;;5098917;28;20035;-72
2023/04/14 07:09:50;;;;;;;;;;;;;;;;;;5068999;28;20428;-73
2023/04/14 07:12:17;;;;;;;1.52;0.70;;;;;;;;;;5050723;28;19928;-73
2023/04/14 07:14:49;;;;;;;2.88;0.80;;;;;;;;;;5069271;28;20072;-72
2023/04/14 07:17:17;;;;;;;3.15;1.08;;;;;;;;;;5069153;28;20063;-72
2023/04/14 07:19:43;;;;;;;4.38;0.90;;;;;;;;;;5052745;28;20385;-72
2023/04/14 07:22:09;;;;;;;3.05;1.25;;;;;;;;;;5032559;28;20083;-72
2023/04/14 07:24:35;;;;;;;2.33;0.98;;;;;;;;;;5066805;28;20075;-72
2023/04/14 07:27:01;;;;;;;4.50;1.33;;;;;;;;;;5068866;28;20059;-72
2023/04/14 07:29:28;;;;;;;3.45;1.08;;;;;;;;;;5064373;28;20521;-72
2023/04/14 07:31:54;;;;;;;5.65;1.30;;;;;;;;;;5067504;28;20403;-72
2023/04/14 07:34:20;;;;;;;;;;;;;;;;;;5053425;28;20120;-73
2023/04/14 07:36:46;;;;;;;3.33;1.23;;;;;;;;;;5069087;28;20007;-73
2023/04/14 07:39:12;;;;;;;2.85;1.10;;;;;;;;;;5050853;28;20040;-73
2023/04/14 07:41:38;;;;;;;3.45;1.10;;;;;;;;;;5067918;28;20041;-73
2023/04/14 07:44:04;;;;;;;4.75;1.00;;;;;;;;;;5068799;28;20036;-72
2023/04/14 07:46:30;;;;;;;4.72;1.27;;;;;;;;;;5100276;28;20148;-72
2023/04/14 07:48:56;;;;;;;;;;;;;;;;;;5050657;28;20050;-73
2023/04/14 07:51:22;;;;;;;3.65;0.90;;;;;;;;;;5067240;28;19924;-74
2023/04/14 07:53:49;;;;;;;3.78;1.20;;;;;;;;;;5051279;28;20127;-74
2023/04/14 07:56:15;;;;;;;3.88;1.48;;;;;;;;;;5069275;28;20114;-74
2023/04/14 07:58:41;;;;;;;7.32;1.17;;;;;;;;;;5069155;28;20475;-74
2023/04/14 08:01:08;;;;;;;2.70;1.05;;;;;;;;;;5093433;28;20515;-74
2023/04/14 08:03:36;;;;;;;4.00;1.15;;;;;;;;;;5069514;28;20036;-74
2023/04/14 08:06:02;;;;;;;2.65;0.90;;;;;;;;;;5068129;28;20155;-72
2023/04/14 08:08:28;;;;;;;3.80;0.90;;;;;;;;;;5056048;28;20043;-73
2023/04/14 08:10:54;;;;;;;;;;;;;;;;;;5100995;28;20048;-72
2023/04/14 08:13:20;;;;;;;4.18;1.15;;;;;;;;;;5069147;28;19916;-73
2023/04/14 08:15:46;;;;;;;5.30;1.15;;;;;;;;;;5067141;28;21412;-73
2023/04/14 08:18:12;;;;;;;5.75;1.30;;;;;;;;;;5067862;28;20044;-74
2023/04/14 08:20:38;;;;;;;5.47;1.10;;;;;;;;;;5068421;28;20052;-73
2023/04/14 08:23:05;;;;;;;4.90;1.13;;;;;;;;;;5065543;28;20535;-73
2023/04/14 08:25:31;;;;;;;3.33;1.05;;;;;;;;;;5067634;28;20051;-73
2023/04/14 08:27:57;;;;;;;4.78;1.33;;;;;;;;;;5067935;28;20765;-73
2023/04/14 08:30:23;;;;;;;3.75;1.15;;;;;;;;;;5102155;28;20071;-73
2023/04/14 08:32:49;;;;;;;;;;;;;;;;;;5068570;28;20137;-73
2023/04/14 08:35:15;;;;;;;4.90;1.27;;;;;;;;;;5068277;28;19921;-73
2023/04/14 08:37:41;;;;;;;6.07;1.27;;;;;;;;;;5067056;28;20045;-74
2023/04/14 08:40:09;;;;;;;5.60;1.20;;;;;;;;;;5065681;28;20051;-72
2023/04/14 08:42:35;;;;;;;5.07;1.13;;;;;;;;;;5066098;28;20445;-73
2023/04/14 08:45:01;;;;;;;5.18;1.13;;;;;;;;;;5052131;28;20040;-73
2023/04/14 08:47:32;;;;;;;3.75;1.20;;;;;;;;;;5099097;28;20061;-73
2023/04/14 08:50:06;;;;;;;5.68;1.20;;;;;;;;;;5066589;28;20431;-73
2023/04/14 08:52:35;;;;;;;4.00;1.10;;;;;;;;;;5100605;28;20048;-73
2023/04/14 08:55:01;;;;;;;3.03;0.98;;;;;;;;;;5065116;28;20036;-73
2023/04/14 08:57:29;;;;;;;5.78;1.33;;;;;;;;;;5068496;28;20055;-74
2023/04/14 08:59:58;;;;;;;4.35;1.30;;;;;;;;;;5070620;28;20080;-74
2023/04/14 09:02:26;;;;;;;2.28;0.80;;;;;;;;;;5052133;28;20034;-74
2023/04/14 09:04:52;;;;;;;2.15;0.85;;;;;;;;;;5071237;28;20190;-75
2023/04/14 09:07:18;;;;;;;;;;;;;;;;;;5054472;28;20066;-74
2023/04/14 09:09:44;;;;;;;3.05;1.20;;;;;;;;;;5070767;28;19916;-74
2023/04/14 09:12:12;;;;;;;4.93;1.23;;;;;;;;;;5083525;28;20326;-75
2023/04/14 09:14:39;;;;;;;4.13;1.55;;;;;;;;;;5053295;28;20428;-76
2023/04/14 09:17:05;;;;;;;4.18;1.15;;;;;;;;;;5091194;28;20059;-75
2023/04/14 09:19:31;;;;;;;;;;;;;;;;;;5086804;28;20037;-75
2023/04/14 09:21:57;;;;;;;5.57;1.50;;;;;;;;;;5085911;28;19935;-74
2023/04/14 09:24:28;;;;;;;2.53;0.80;;;;;;;;;;5069150;28;20045;-73
2023/04/14 09:26:54;;;;;;;3.08;0.90;;;;;;;;;;5069183;28;20092;-74
2023/04/14 09:29:21;;;;;;;4.18;1.20;;;;;;;;;;5085923;28;20056;-74
2023/04/14 09:31:47;;;;;;;2.83;0.90;;;;;;;;;;5085335;28;20076;-73
2023/04/14 09:34:17;;;;;;;4.20;1.27;;;;;;;;;;5086609;28;20037;-74
2023/04/14 09:37:05;;;;;;;4.53;1.42;;;;;;;;;;5068859;28;20036;-73
2023/04/14 09:39:34;;;;;;;4.43;1.17;;;;;;;;;;5092144;28;20044;-73
2023/04/14 09:42:01;;;;;;;5.57;1.55;;;;;;;;;;5088733;28;20081;-75
2023/04/14 09:44:28;;;;;;;5.78;1.13;;;;;;;;;;5076149;28;20132;-76
2023/04/14 09:47:04;;;;;;;4.43;1.20;;;;;;;;;;5076347;28;20500;-75
2023/04/14 09:49:30;;;;;;;5.88;1.35;;;;;;;;;;5103381;28;20123;-75
2023/04/14 09:51:56;;;;;;;;;;;;;;;;;;5071487;28;20059;-76
2023/04/14 09:54:24;;;;;;;6.15;1.50;;;;;;;;;;5092267;28;19916;-75
2023/04/14 09:56:51;;;;;;;4.82;1.50;;;;;;;;;;5080099;28;20050;-73
2023/04/14 09:59:18;;;;;;;5.28;1.60;;;;;;;;;;5072095;28;20456;-73
2023/04/14 10:01:45;;;;;;;6.82;1.60;;;;;;;;;;5054959;28;20041;-72
2023/04/14 10:04:23;;;;;;;5.95;1.40;;;;;;;;;;5071453;28;20536;-73
2023/04/14 10:06:49;;;;;;;6.15;1.55;;;;;;;;;;5084097;28;20519;-72
2023/04/14 10:09:22;;;;;;;6.05;1.40;;;;;;;;;;5089071;28;20372;-73
2023/04/14 10:12:06;;;;;;;5.85;1.83;;;;;;;;;;5084851;28;20428;-72
2023/04/14 10:14:32;;;;;;;3.53;1.30;;;;;;;;;;5070658;28;20044;-72
2023/04/14 10:17:01;;;;;;;5.88;1.52;;;;;;;;;;5054314;28;20048;-72
2023/04/14 10:19:28;;;;;;;4.93;1.40;;;;;;;;;;5072154;28;20598;-72
2023/04/14 10:21:56;;;;;;;8.68;2.05;;;;;;;;;;5071041;28;20071;-72
2023/04/14 10:24:23;;;;;;;4.90;1.50;;;;;;;;;;5054223;28;20068;-72
2023/04/14 10:26:49;;;;;;;6.35;1.55;;;;;;;;;;5070595;28;20063;-72
2023/04/14 10:29:15;;;;;;;;;;;;;;;;;;5105559;28;20033;-72
2023/04/14 10:32:00;;;;;;;3.17;1.50;;;;;;;;;;5071061;28;20819;-71
2023/04/14 10:34:26;;;;;;;4.53;1.38;;;;;;;;;;5070648;28;20048;-72
2023/04/14 10:36:52;;;;;;;;;;;;;;;;;;5072910;28;20041;-72
2023/04/14 10:39:24;;;;;;;4.18;1.38;;;;;;;;;;5070708;28;20387;-72
2023/04/14 10:41:52;;;;;;;4.45;1.50;;;;;;;;;;5070232;28;20101;-72
2023/04/14 10:44:24;;;;;;;5.03;1.40;;;;;;;;;;5070815;28;20049;-72
2023/04/14 10:46:51;;;;;;;7.60;1.83;;;;;;;;;;5070565;28;20119;-72
2023/04/14 10:49:17;;;;;;;4.53;1.50;;;;;;;;;;5070240;28;20056;-72
2023/04/14 10:51:47;;;;;;;5.65;1.73;;;;;;;;;;5070371;28;20052;-71
2023/04/14 10:54:18;;;;;;;3.70;1.55;;;;;;;;;;5070421;28;20090;-71
2023/04/14 10:57:02;;;;;;;6.30;1.50;;;;;;;;;;5070170;28;20052;-72
2023/04/14 10:59:29;;;;;;;6.53;1.48;;;;;;;;;;5070376;28;20117;-72
2023/04/14 11:01:55;;;;;;;;;;;;;;;;;;5071895;28;20045;-71
2023/04/14 11:04:22;;;;;;;3.93;1.33;;;;;;;;;;5070163;28;20309;-71
2023/04/14 11:06:53;;;;;;;4.03;1.40;;;;;;;;;;5053612;28;20400;-71
2023/04/14 11:09:26;;;;;;;5.43;1.50;;;;;;;;;;5070245;28;20444;-71
2023/04/14 11:11:55;;;;;;;5.75;1.50;;;;;;;;;;5069744;28;20036;-72
2023/04/14 11:14:25;;;;;;;4.22;1.15;;;;;;;;;;5069983;28;20049;-72
2023/04/14 11:16:51;;;;;;;5.75;1.27;;;;;;;;;;5069931;28;20477;-71
2023/04/14 11:19:17;;;;;;;;;;;;;;;;;;5053354;28;20399;-69
2023/04/14 11:21:52;;;;;;;4.05;1.30;;;;;;;;;;5069518;28;19924;-69
2023/04/14 11:24:18;;;;;;;4.60;1.58;;;;;;;;;;5053000;28;20045;-70
2023/04/14 11:26:45;;;;;;;3.92;1.30;;;;;;;;;;5070984;28;20526;-70
2023/04/14 11:29:11;;;;;;;2.88;0.98;;;;;;;;;;5069488;28;20033;-70
2023/04/14 11:31:37;;;;;;;;;;;;;;;;;;5069844;28;20496;-70
2023/04/14 11:34:05;;;;;;;6.55;1.48;;;;;;;;;;5052734;28;19923;-70
2023/04/14 11:36:35;;;;;;;5.90;1.42;;;;;;;;;;5069214;28;20048;-70
2023/04/14 11:39:01;;;;;;;3.05;1.20;;;;;;;;;;5053389;28;20492;-70
2023/04/14 11:41:27;;;;;;;3.15;1.00;;;;;;;;;;5052646;28;20059;-70
2023/04/14 11:43:53;;;;;;;;;;;;;;;;;;5069890;28;20040;-70
2023/04/14 11:46:22;;;;;;;3.72;1.38;;;;;;;;;;5069224;28;19920;-70
2023/04/14 11:48:53;;;;;;;3.85;1.13;;;;;;;;;;5069146;28;20129;-70
2023/04/14 11:51:19;;;;;;;4.07;1.10;;;;;;;;;;5068985;28;20123;-70
2023/04/14 11:53:45;;;;;;;4.95;1.88;;;;;;;;;;5052668;28;20151;-70
2023/04/14 11:56:11;;;;;;;;;;;;;;;;;;5069928;28;20124;-70
2023/04/14 11:58:38;;;;;;;4.88;1.33;;;;;;;;;;5069274;28;19964;-70
2023/04/14 12:01:04;;;;;;;;;;;;;;;;;;5069355;28;20082;-70
2023/04/14 12:03:31;;;;;;;5.35;1.25;;;;;;;;;;5052164;28;19920;-70
2023/04/14 12:06:02;;;;;;;5.65;1.58;;;;;;;;;;5070444;28;20048;-70
2023/04/14 12:08:31;;;;;;;3.45;1.25;;;;;;;;;;5068924;28;20083;-70
2023/04/14 12:10:57;;;;;;;2.85;1.33;;;;;;;;;;5069079;28;20049;-70
2023/04/14 12:13:25;;;;;;;2.47;1.05;;;;;;;;;;5069046;28;20044;-70
2023/04/14 12:15:53;;;;;;;4.25;1.30;;;;;;;;;;5070447;28;20392;-70
2023/04/14 12:18:20;;;;;;;2.85;1.10;;;;;;;;;;5068972;28;20052;-70
2023/04/14 12:20:47;;;;;;;4.80;1.55;;;;;;;;;;5068778;28;20075;-70
2023/04/14 12:23:14;;;;;;;3.20;1.38;;;;;;;;;;5068801;28;20033;-70
2023/04/14 12:25:41;;;;;;;3.20;1.17;;;;;;;;;;5069082;28;20132;-70
2023/04/14 12:28:07;;;;;;;;;;;;;;;;;;5069187;28;20041;-70
2023/04/14 12:30:34;;;;;;;3.15;1.10;;;;;;;;;;5068919;28;19920;-70
2023/04/14 12:33:10;;;;;;;3.08;1.13;;;;;;;;;;5072517;28;20127;-70
2023/04/14 12:35:37;;;;;;;2.67;1.20;;;;;;;;;;5056742;28;20048;-70
2023/04/14 12:38:13;;;;;;;3.42;1.00;;;;;;;;;;5073119;28;20063;-70
2023/04/14 12:40:44;;;;;;;3.77;0.90;;;;;;;;;;5072902;28;20508;-70
2023/04/14 12:43:11;;;;;;;2.95;1.13;;;;;;;;;;5072815;28;20770;-70
2023/04/14 12:45:44;;;;;;;2.03;1.00;;;;;;;;;;5056428;28;20175;-70
2023/04/14 12:48:11;;;;;;;2.80;1.20;;;;;;;;;;5072356;28;20407;-70
2023/04/14 12:50:38;;;;;;;4.07;1.13;;;;;;;;;;5072931;28;20048;-70
2023/04/14 12:53:22;;;;;;;4.75;1.60;;;;;;;;;;5072743;28;20488;-70
2023/04/14 12:56:03;;;;;;;4.97;1.27;;;;;;;;;;5072551;28;20182;-70
2023/04/14 12:58:29;;;;;;;3.78;1.10;;;;;;;;;;5055986;28;20075;-70
2023/04/14 13:00:55;;;;;;;3.55;1.58;;;;;;;;;;5072329;28;20051;-70
2023/04/14 13:03:21;;;;;;;;;;;;;;;;;;5072953;28;20388;-70
2023/04/14 13:05:47;;;;;;;4.72;1.25;;;;;;;;;;5072683;28;19926;-70
2023/04/14 13:08:13;;;;;;;2.83;1.20;;;;;;;;;;5039307;28;20041;-70
2023/04/14 13:10:39;;;;;;;2.03;0.90;;;;;;;;;;5055603;28;20075;-70
2023/04/14 13:13:05;;;;;;;2.45;0.80;;;;;;;;;;5072283;28;20067;-70
2023/04/14 13:15:31;;;;;;;3.55;1.25;;;;;;;;;;5039298;28;20419;-70
2023/04/14 13:17:57;;;;;;;;;;;;;;;;;;5072768;28;20063;-70
2023/04/14 13:20:23;;;;;;;4.88;1.55;;;;;;;;;;5071936;28;20391;-70
2023/04/14 13:22:49;;;;;;;4.47;1.52;;;;;;;;;;5072130;28;20101;-70
2023/04/14 13:25:16;;;;;;;3.67;1.35;;;;;;;;;;5072208;28;20051;-70
2023/04/14 13:27:42;;;;;;;3.08;1.17;;;;;;;;;;5072070;28;20041;-70
2023/04/14 13:30:08;;;;;;;2.95;1.27;;;;;;;;;;5055275;28;20064;-69
2023/04/14 13:32:34;;;;;;;2.88;1.25;;;;;;;;;;5071889;28;20107;-69
2023/04/14 13:35:00;;;;;;;4.43;1.17;;;;;;;;;;5072069;28;20048;-69
2023/04/14 13:37:26;;;;;;;4.35;1.45;;;;;;;;;;5071685;28;20136;-69
2023/04/14 13:39:52;;;;;;;4.10;1.30;;;;;;;;;;5055157;28;20045;-69
2023/04/14 13:42:18;;;;;;;2.95;1.10;;;;;;;;;;5071169;28;20036;-69
2023/04/14 13:44:45;;;;;;;4.07;1.20;;;;;;;;;;5055000;28;20488;-69
2023/04/14 13:47:11;;;;;;;3.25;1.20;;;;;;;;;;5054750;28;20036;-69
2023/04/14 13:49:37;;;;;;;;;;;;;;;;;;5071805;28;20056;-69
2023/04/14 13:52:03;;;;;;;4.57;1.20;;;;;;;;;;5054670;28;20041;-69
2023/04/14 13:54:29;;;;;;;2.47;1.13;;;;;;;;;;5071504;28;20048;-70
2023/04/14 13:56:55;;;;;;;3.83;1.20;;;;;;;;;;5071278;28;20045;-70
2023/04/14 13:59:21;;;;;;;4.68;1.23;;;;;;;;;;5071393;28;20052;-70
2023/04/14 14:01:47;;;;;;;;;;;;;;;;;;5071633;28;20052;-72
2023/04/14 14:04:13;;;;;;;3.28;1.33;;;;;;;;;;5071156;28;19927;-70
2023/04/14 14:06:39;;;;;;;3.22;1.17;;;;;;;;;;5071285;28;20052;-70
2023/04/14 14:09:06;;;;;;;;;;;;;;;;;;5072012;28;20435;-69
2023/04/14 14:11:32;;;;;;;3.00;1.00;;;;;;;;;;5054756;28;20257;-68
2023/04/14 14:13:58;;;;;;;;;;;;;;;;;;5073235;28;20052;-69
2023/04/14 14:16:24;;;;;;;3.15;1.30;;;;;;;;;;5071101;28;19974;-69
2023/04/14 14:18:51;;;;;;;2.67;1.00;;;;;;;;;;5071279;28;20052;-69
2023/04/14 14:21:17;;;;;;;4.68;1.55;;;;;;;;;;5054257;28;20113;-70
2023/04/14 14:23:43;;;;;;;;;;;;;;;;;;5071472;28;20094;-68
2023/04/14 14:26:12;;;;;;;4.53;1.35;;;;;;;;;;5071022;28;19916;-70
2023/04/14 14:28:39;;;;;;;5.07;1.58;;;;;;;;;;5070942;28;20478;-69
2023/04/14 14:31:05;;;;;;;;;;;;;;;;;;5071389;28;20044;-69
2023/04/14 14:33:31;;;;;;;4.47;1.55;;;;;;;;;;5070717;28;19917;-69
2023/04/14 14:35:57;;;;;;;;;;;;;;;;;;5071016;28;20079;-69
2023/04/14 14:38:23;;;;;;;3.72;1.30;;;;;;;;;;5070310;28;19959;-69
2023/04/14 14:40:50;;;;;;;3.85;1.42;;;;;;;;;;5053927;28;20418;-69
2023/04/14 14:43:16;;;;;;;4.15;1.20;;;;;;;;;;5070502;28;20066;-69
2023/04/14 14:45:42;;;;;;;;;;;;;;;;;;5072313;28;20484;-69
2023/04/14 14:48:10;;;;;;;4.03;1.52;;;;;;;;;;5053540;28;19931;-70
2023/04/14 14:50:36;;;;;;;2.78;1.27;;;;;;;;;;5070492;28;20048;-69
2023/04/14 14:53:02;;;;;;;;;;;;;;;;;;5070805;28;20052;-69
2023/04/14 14:55:28;;;;;;;4.32;1.63;;;;;;;;;;5069471;28;19920;-69